Time;durP1;ratioP1;P1;durP2;ratioP2;P2;SDS_P1;SDS_P2;PMS_P1;PMS_P2;Temp;Humidity;BMP_temperature;BMP_pressure;BME280_temperature;BME280_humidity;BME280_pressure;Samples;Min_cycle;Max_cycle;Signal;HPM_P1;HPM_P2
2022/04/03 00:02:03;;;;;;;7.55;4.40;;;-2.10;99.90;;;;;;5047287;28;20127;-69
2022/04/03 00:04:29;;;;;;;8.35;4.28;;;-2.20;99.90;;;;;;5049930;28;20037;-69
2022/04/03 00:06:55;;;;;;;6.88;4.07;;;-2.20;99.90;;;;;;5066059;28;20090;-69
2022/04/03 00:09:21;;;;;;;7.60;4.22;;;-2.20;99.90;;;;;;5060136;28;20044;-69
2022/04/03 00:11:46;;;;;;;7.65;4.68;;;-2.20;99.90;;;;;;5055919;28;20037;-69
2022/04/03 00:14:12;;;;;;;8.23;4.50;;;-2.20;99.90;;;;;;5042576;28;20049;-69
2022/04/03 00:16:39;;;;;;;8.52;4.30;;;-2.20;99.90;;;;;;5059071;28;20483;-69
2022/04/03 00:19:04;;;;;;;10.93;5.03;;;-2.20;99.90;;;;;;5047208;28;20041;-69
2022/04/03 00:21:30;;;;;;;8.48;4.45;;;-2.20;99.90;;;;;;5050268;28;20561;-69
2022/04/03 00:23:55;;;;;;;9.48;4.50;;;-2.20;99.90;;;;;;5049004;28;20510;-69
2022/04/03 00:26:21;;;;;;;10.27;4.60;;;-2.10;99.90;;;;;;5047321;28;20423;-69
2022/04/03 00:28:46;;;;;;;8.60;4.30;;;-2.10;99.90;;;;;;5032938;28;20037;-69
2022/04/03 00:31:15;;;;;;;8.68;4.50;;;-2.10;99.90;;;;;;5049430;28;20117;-69
2022/04/03 00:33:40;;;;;;;7.50;4.25;;;-2.10;99.90;;;;;;5048133;28;20086;-69
2022/04/03 00:36:06;;;;;;;7.65;3.67;;;-2.10;99.90;;;;;;5053830;28;20044;-68
2022/04/03 00:38:32;;;;;;;13.02;5.78;;;-2.10;99.90;;;;;;5052796;28;20036;-68
2022/04/03 00:41:00;;;;;;;6.75;4.25;;;-2.20;99.90;;;;;;5060192;28;20033;-68
2022/04/03 00:43:25;;;;;;;7.53;3.85;;;-2.20;99.90;;;;;;5047266;28;20041;-68
2022/04/03 00:45:52;;;;;;;9.52;4.85;;;-2.30;99.90;;;;;;5056101;28;20496;-68
2022/04/03 00:48:18;;;;;;;7.70;4.70;;;-2.40;99.90;;;;;;5049154;28;20041;-68
2022/04/03 00:50:44;;;;;;;9.57;4.43;;;-2.40;99.90;;;;;;5049322;28;20454;-68
2022/04/03 00:53:10;;;;;;;8.45;4.35;;;-2.40;99.90;;;;;;5050388;28;20049;-68
2022/04/03 00:55:38;;;;;;;8.05;4.68;;;-2.40;99.90;;;;;;5039393;28;20047;-68
2022/04/03 00:58:04;;;;;;;6.82;4.40;;;-2.50;99.90;;;;;;5041045;28;20041;-68
2022/04/03 01:00:30;;;;;;;9.20;4.95;;;-2.50;99.90;;;;;;5034396;28;20408;-68
2022/04/03 01:02:56;;;;;;;9.60;5.10;;;-2.40;99.90;;;;;;5061743;28;20072;-68
2022/04/03 01:05:21;;;;;;;11.15;5.13;;;-2.50;99.90;;;;;;5050987;28;20049;-68
2022/04/03 01:07:47;;;;;;;9.23;5.47;;;-2.40;99.90;;;;;;5051320;28;20045;-69
2022/04/03 01:10:12;;;;;;;9.35;5.15;;;-2.30;99.90;;;;;;5051605;28;20037;-69
2022/04/03 01:12:40;;;;;;;11.43;6.20;;;-2.40;99.90;;;;;;5033700;28;20507;-69
2022/04/03 01:15:06;;;;;;;10.63;5.93;;;-2.30;99.90;;;;;;5033865;28;20047;-69
2022/04/03 01:17:31;;;;;;;11.73;6.25;;;-2.20;99.90;;;;;;5051072;28;20056;-68
2022/04/03 01:19:57;;;;;;;11.20;6.63;;;-2.10;99.90;;;;;;5043724;28;20037;-68
2022/04/03 01:22:22;;;;;;;14.02;6.85;;;-2.00;99.90;;;;;;5033050;28;20049;-68
2022/04/03 01:24:55;;;;;;;12.90;6.70;;;-1.80;99.90;;;;;;5031917;28;20037;-68
2022/04/03 01:27:21;;;;;;;13.10;6.93;;;-1.70;99.90;;;;;;5031558;28;20077;-69
2022/04/03 01:29:48;;;;;;;15.00;7.80;;;-1.60;99.90;;;;;;5030723;28;20083;-69
2022/04/03 01:32:13;;;;;;;13.75;7.47;;;-1.50;99.90;;;;;;5048601;28;20040;-69
2022/04/03 01:34:39;;;;;;;11.60;6.57;;;-1.40;99.90;;;;;;5051584;28;20041;-68
2022/04/03 01:37:04;;;;;;;15.07;6.93;;;-1.30;99.90;;;;;;5053707;28;20033;-69
2022/04/03 01:39:32;;;;;;;13.90;6.70;;;-1.20;99.90;;;;;;5064396;28;20033;-69
2022/04/03 01:41:58;;;;;;;12.27;7.50;;;-1.20;99.90;;;;;;5057396;28;20037;-69
2022/04/03 01:44:23;;;;;;;11.52;6.50;;;-1.10;99.90;;;;;;5051313;28;20045;-69
2022/04/03 01:46:49;;;;;;;10.18;6.47;;;-1.10;99.90;;;;;;5062019;28;20045;-69
2022/04/03 01:49:14;;;;;;;11.88;6.63;;;-1.00;99.90;;;;;;5039881;28;20044;-69
2022/04/03 01:51:40;;;;;;;12.38;6.68;;;-1.00;99.90;;;;;;5050674;28;20048;-69
2022/04/03 01:54:05;;;;;;;10.18;6.93;;;-0.90;99.90;;;;;;5067549;28;20045;-69
2022/04/03 01:56:34;;;;;;;9.57;6.00;;;-0.90;99.90;;;;;;5067106;28;20040;-69
2022/04/03 01:59:01;;;;;;;12.52;6.32;;;-0.90;99.90;;;;;;5050875;28;20045;-69
2022/04/03 02:01:26;;;;;;;11.57;6.30;;;-0.80;99.90;;;;;;5032959;28;20039;-69
2022/04/03 02:03:52;;;;;;;12.13;6.18;;;-0.80;99.90;;;;;;5048725;28;20029;-69
2022/04/03 02:06:17;;;;;;;11.00;6.47;;;-0.70;99.90;;;;;;5050498;28;20079;-69
2022/04/03 02:08:43;;;;;;;9.32;5.45;;;-0.70;99.90;;;;;;5049973;28;20509;-69
2022/04/03 02:11:09;;;;;;;9.23;5.60;;;-0.70;99.90;;;;;;5049659;28;20037;-69
2022/04/03 02:13:35;;;;;;;11.10;5.82;;;-0.60;99.90;;;;;;5050433;28;20068;-68
2022/04/03 02:16:00;;;;;;;12.60;5.88;;;-0.60;99.90;;;;;;5050616;28;20076;-68
2022/04/03 02:18:26;;;;;;;11.25;6.43;;;-0.50;99.90;;;;;;5042506;28;20045;-68
2022/04/03 02:20:53;;;;;;;12.50;6.43;;;-0.50;99.90;;;;;;5042798;28;20037;-69
2022/04/03 02:23:19;;;;;;;10.63;6.40;;;-0.50;99.90;;;;;;5061977;28;20125;-69
2022/04/03 02:25:45;;;;;;;10.98;6.30;;;-0.50;99.90;;;;;;5050413;28;20471;-69
2022/04/03 02:28:12;;;;;;;11.32;6.20;;;-0.50;99.90;;;;;;5050633;28;20052;-69
2022/04/03 02:30:37;;;;;;;12.05;6.55;;;-0.50;99.90;;;;;;5050446;28;20079;-69
2022/04/03 02:33:03;;;;;;;11.63;6.25;;;-0.50;99.90;;;;;;5066891;28;20036;-69
2022/04/03 02:35:29;;;;;;;11.80;6.70;;;-0.40;99.90;;;;;;5071016;28;20368;-69
2022/04/03 02:37:54;;;;;;;11.32;6.53;;;-0.50;99.90;;;;;;5043208;28;20037;-69
2022/04/03 02:40:20;;;;;;;9.25;6.20;;;-0.40;99.90;;;;;;5046184;28;20096;-69
2022/04/03 02:42:46;;;;;;;10.00;6.85;;;-0.40;99.90;;;;;;5041328;28;20033;-69
2022/04/03 02:45:12;;;;;;;12.98;6.28;;;-0.40;99.90;;;;;;5030316;28;20045;-69
2022/04/03 02:47:38;;;;;;;13.20;6.45;;;-0.40;99.90;;;;;;5055779;28;20131;-69
2022/04/03 02:50:05;;;;;;;12.15;6.60;;;-0.40;99.90;;;;;;5065359;28;20552;-68
2022/04/03 02:52:31;;;;;;;12.48;6.80;;;-0.40;99.90;;;;;;5031783;28;20483;-69
2022/04/03 02:54:57;;;;;;;12.68;6.40;;;-0.30;99.90;;;;;;5036120;28;20052;-68
2022/04/03 02:57:23;;;;;;;12.35;7.15;;;-0.40;99.90;;;;;;5053871;28;20043;-68
2022/04/03 02:59:48;;;;;;;11.15;6.03;;;-0.40;99.90;;;;;;5070241;28;20068;-68
2022/04/03 03:02:14;;;;;;;12.05;6.63;;;-0.30;99.90;;;;;;5036349;28;20075;-69
2022/04/03 03:04:39;;;;;;;11.07;6.25;;;-0.30;99.90;;;;;;5029400;28;20100;-68
2022/04/03 03:07:06;;;;;;;13.65;6.30;;;-0.30;99.90;;;;;;5058204;28;20070;-69
2022/04/03 03:09:32;;;;;;;11.55;6.40;;;-0.30;99.90;;;;;;5052963;28;20042;-69
2022/04/03 03:12:00;;;;;;;11.38;6.45;;;-0.20;99.90;;;;;;5052394;28;20047;-68
2022/04/03 03:14:26;;;;;;;9.88;5.78;;;-0.20;99.90;;;;;;5042836;28;20076;-69
2022/04/03 03:16:53;;;;;;;10.60;5.78;;;-0.20;99.90;;;;;;5049796;28;20043;-69
2022/04/03 03:19:18;;;;;;;10.27;5.63;;;-0.10;99.90;;;;;;5034320;28;20372;-69
2022/04/03 03:21:44;;;;;;;14.30;6.03;;;-0.10;99.90;;;;;;5058854;28;20041;-68
2022/04/03 03:24:10;;;;;;;8.40;4.93;;;0.00;99.90;;;;;;5025123;28;20038;-69
2022/04/03 03:26:36;;;;;;;9.13;4.95;;;0.00;99.90;;;;;;5048281;28;20454;-69
2022/04/03 03:29:02;;;;;;;8.55;5.32;;;0.00;99.90;;;;;;5051326;28;20032;-69
2022/04/03 03:31:28;;;;;;;6.05;4.20;;;0.00;99.90;;;;;;5049725;28;20395;-69
2022/04/03 03:33:54;;;;;;;5.97;4.22;;;0.10;99.90;;;;;;5048054;28;20124;-69
2022/04/03 03:36:20;;;;;;;5.05;3.35;;;0.10;99.90;;;;;;5035364;28;20036;-69
2022/04/03 03:38:45;;;;;;;7.07;3.35;;;0.20;99.90;;;;;;5051528;28;20041;-69
2022/04/03 03:41:11;;;;;;;7.40;3.75;;;0.30;99.90;;;;;;5052113;28;20040;-69
2022/04/03 03:43:36;;;;;;;6.68;3.55;;;0.40;99.90;;;;;;5051895;28;20041;-69
2022/04/03 03:46:02;;;;;;;6.80;3.85;;;0.40;99.90;;;;;;5051230;28;20043;-69
2022/04/03 03:48:28;;;;;;;4.82;3.40;;;0.50;99.90;;;;;;5051485;28;20049;-71
2022/04/03 03:50:55;;;;;;;6.70;3.38;;;0.60;99.90;;;;;;5051421;28;20047;-70
2022/04/03 03:53:21;;;;;;;6.82;3.58;;;0.50;99.90;;;;;;5054268;28;20041;-71
2022/04/03 03:55:47;;;;;;;6.60;3.88;;;0.60;99.90;;;;;;5031871;28;20041;-71
2022/04/03 03:58:13;;;;;;;7.28;4.65;;;0.60;99.90;;;;;;5041313;28;20086;-70
2022/04/03 04:00:38;;;;;;;7.18;3.72;;;0.60;99.90;;;;;;5067053;28;20498;-69
2022/04/03 04:03:04;;;;;;;7.97;3.75;;;0.60;99.90;;;;;;5050727;28;20121;-70
2022/04/03 04:05:30;;;;;;;5.50;3.55;;;0.50;99.90;;;;;;5050202;28;20483;-70
2022/04/03 04:07:56;;;;;;;7.22;3.67;;;0.60;99.90;;;;;;5065470;28;20068;-71
2022/04/03 04:10:21;;;;;;;6.85;3.90;;;0.60;99.90;;;;;;5067829;28;20041;-71
2022/04/03 04:12:47;;;;;;;6.00;3.90;;;0.60;99.90;;;;;;5050658;28;20044;-70
2022/04/03 04:15:14;;;;;;;5.25;3.50;;;0.70;99.90;;;;;;5049564;28;20067;-70
2022/04/03 04:17:47;;;;;;;4.55;3.40;;;0.60;99.90;;;;;;5051148;28;20048;-70
2022/04/03 04:20:17;;;;;;;6.45;3.65;;;0.70;99.90;;;;;;5049139;28;20066;-71
2022/04/03 04:22:46;;;;;;;6.15;3.50;;;0.70;99.90;;;;;;5033989;28;20051;-71
2022/04/03 04:25:13;;;;;;;8.23;3.78;;;0.70;99.90;;;;;;5046193;28;20119;-72
2022/04/03 04:27:40;;;;;;;6.50;3.65;;;0.70;99.90;;;;;;5034622;28;20043;-71
2022/04/03 04:30:06;;;;;;;6.05;3.80;;;0.80;99.90;;;;;;5031578;28;20472;-70
2022/04/03 04:32:32;;;;;;;5.05;3.40;;;0.70;99.90;;;;;;5044299;28;20045;-71
2022/04/03 04:34:57;;;;;;;7.53;3.95;;;0.70;99.90;;;;;;5063417;28;20442;-71
2022/04/03 04:37:23;;;;;;;7.68;4.20;;;0.80;99.90;;;;;;5017931;28;20392;-71
2022/04/03 04:39:49;;;;;;;7.60;4.57;;;0.70;99.90;;;;;;5044267;28;20044;-70
2022/04/03 04:42:14;;;;;;;7.65;4.80;;;0.70;99.90;;;;;;5048013;28;20029;-71
2022/04/03 04:44:41;;;;;;;9.93;4.13;;;0.60;99.90;;;;;;5050536;28;20464;-71
2022/04/03 04:47:07;;;;;;;6.50;4.22;;;0.60;99.90;;;;;;5050415;28;20041;-71
2022/04/03 04:49:33;;;;;;;6.72;3.92;;;0.70;99.90;;;;;;5066812;28;20037;-71
2022/04/03 04:51:58;;;;;;;7.25;3.97;;;0.50;99.90;;;;;;5064704;28;20064;-71
2022/04/03 04:54:26;;;;;;;6.53;4.28;;;0.60;99.90;;;;;;5050696;28;20104;-71
2022/04/03 04:56:52;;;;;;;5.57;3.88;;;0.50;99.90;;;;;;5050261;28;20040;-71
2022/04/03 04:59:18;;;;;;;11.00;4.43;;;0.50;99.90;;;;;;5049838;28;20044;-71
2022/04/03 05:01:44;;;;;;;8.85;4.80;;;0.40;99.90;;;;;;5049653;28;20032;-71
2022/04/03 05:04:09;;;;;;;9.15;4.60;;;0.50;99.90;;;;;;5066825;28;20025;-71
2022/04/03 05:06:35;;;;;;;6.93;4.70;;;0.40;99.90;;;;;;5033694;28;20040;-71
2022/04/03 05:09:03;;;;;;;9.30;4.60;;;0.50;99.90;;;;;;5054232;28;20056;-71
2022/04/03 05:11:28;;;;;;;7.05;4.72;;;0.30;99.90;;;;;;5049704;28;20086;-71
2022/04/03 05:13:54;;;;;;;8.07;4.63;;;0.40;99.90;;;;;;5051770;28;20119;-71
2022/04/03 05:16:20;;;;;;;7.25;4.65;;;0.40;99.90;;;;;;5049855;28;20049;-71
2022/04/03 05:18:46;;;;;;;7.38;4.32;;;0.30;99.90;;;;;;5049092;28;20495;-70
2022/04/03 05:21:12;;;;;;;8.15;4.55;;;0.30;99.90;;;;;;5050402;28;20045;-71
2022/04/03 05:23:39;;;;;;;9.02;4.20;;;0.40;99.90;;;;;;5054686;28;20129;-71
2022/04/03 05:26:05;;;;;;;6.65;3.70;;;0.40;99.90;;;;;;5033903;28;20175;-71
2022/04/03 05:28:30;;;;;;;6.80;3.78;;;0.30;99.90;;;;;;5052928;28;20120;-71
2022/04/03 05:30:56;;;;;;;9.23;3.60;;;0.20;99.90;;;;;;5049394;28;20041;-71
2022/04/03 05:33:22;;;;;;;7.20;3.45;;;0.30;99.90;;;;;;5049225;28;20052;-72
2022/04/03 05:35:48;;;;;;;6.60;3.28;;;0.30;99.90;;;;;;5041329;28;20040;-71
2022/04/03 05:38:14;;;;;;;5.18;3.13;;;0.40;99.90;;;;;;5065184;28;20041;-72
2022/04/03 05:40:40;;;;;;;4.97;3.20;;;0.30;99.90;;;;;;5030623;28;20449;-72
2022/04/03 05:43:05;;;;;;;6.55;3.38;;;0.30;99.90;;;;;;5051584;28;20116;-71
2022/04/03 05:45:31;;;;;;;4.65;3.00;;;0.40;99.90;;;;;;5034459;28;20044;-71
2022/04/03 05:47:57;;;;;;;4.53;2.80;;;0.30;99.90;;;;;;5040732;28;20041;-71
2022/04/03 05:50:23;;;;;;;5.38;3.03;;;0.20;99.90;;;;;;5038974;28;20045;-71
2022/04/03 05:52:52;;;;;;;8.60;3.20;;;0.30;99.90;;;;;;5047379;28;20446;-71
2022/04/03 05:55:20;;;;;;;5.80;3.28;;;0.30;99.90;;;;;;5046655;28;20177;-71
2022/04/03 05:57:48;;;;;;;6.75;3.20;;;0.20;99.90;;;;;;5054986;28;20055;-71
2022/04/03 06:00:15;;;;;;;9.15;3.10;;;0.30;99.90;;;;;;5029417;28;20091;-72
2022/04/03 06:03:01;;;;;;;4.82;2.92;;;0.20;99.90;;;;;;5057107;28;20029;-72
2022/04/03 06:05:29;;;;;;;4.90;2.80;;;0.20;99.90;;;;;;5043182;28;20107;-71
2022/04/03 06:07:55;;;;;;;9.45;3.67;;;0.30;99.90;;;;;;5050264;28;20049;-71
2022/04/03 06:10:23;;;;;;;6.13;3.22;;;0.30;99.90;;;;;;5044683;28;20045;-72
2022/04/03 06:12:52;;;;;;;5.78;2.97;;;0.50;99.90;;;;;;5040702;28;20458;-71
2022/04/03 06:15:17;;;;;;;6.15;2.80;;;0.50;99.90;;;;;;5048460;28;20098;-71
2022/04/03 06:17:43;;;;;;;5.97;2.90;;;0.60;99.90;;;;;;5031266;28;20041;-71
2022/04/03 06:20:09;;;;;;;5.22;2.92;;;0.60;99.90;;;;;;5064615;28;20033;-72
2022/04/03 06:22:34;;;;;;;4.63;3.22;;;0.80;99.90;;;;;;5055001;28;20040;-72
2022/04/03 06:25:00;;;;;;;6.03;3.40;;;0.90;99.90;;;;;;5048169;28;20462;-72
2022/04/03 06:27:27;;;;;;;5.82;3.65;;;1.00;99.90;;;;;;5054864;28;20038;-72
2022/04/03 06:29:52;;;;;;;8.18;3.25;;;1.10;99.90;;;;;;5047527;28;20072;-72
2022/04/03 06:32:18;;;;;;;4.15;3.13;;;1.20;99.90;;;;;;5048690;28;20068;-72
2022/04/03 06:34:43;;;;;;;5.75;3.35;;;1.30;99.90;;;;;;5036217;28;20052;-72
2022/04/03 06:37:09;;;;;;;5.50;3.20;;;1.40;99.90;;;;;;5048239;28;20463;-71
2022/04/03 06:39:35;;;;;;;9.50;3.15;;;1.60;99.90;;;;;;5061853;28;20041;-71
2022/04/03 06:42:02;;;;;;;6.00;2.88;;;1.60;99.90;;;;;;5063337;28;20048;-70
2022/04/03 06:44:29;;;;;;;6.47;3.40;;;1.80;99.90;;;;;;5048456;28;20538;-72
2022/04/03 06:46:56;;;;;;;6.65;3.08;;;1.90;99.90;;;;;;5048567;28;20059;-71
2022/04/03 06:49:21;;;;;;;5.97;3.60;;;2.10;99.90;;;;;;5046720;28;20496;-71
2022/04/03 06:51:47;;;;;;;7.43;3.90;;;2.20;99.90;;;;;;5065281;28;20088;-71
2022/04/03 06:54:12;;;;;;;8.38;3.88;;;2.20;99.90;;;;;;5048802;28;20036;-71
2022/04/03 06:56:38;;;;;;;6.90;3.55;;;2.40;99.90;;;;;;5060940;28;20033;-70
2022/04/03 06:59:04;;;;;;;8.95;4.07;;;2.50;99.90;;;;;;5048736;28;20029;-71
2022/04/03 07:01:29;;;;;;;8.52;3.88;;;2.60;99.90;;;;;;5059094;28;20036;-71
2022/04/03 07:03:54;;;;;;;9.68;3.95;;;2.70;99.90;;;;;;5046738;28;20500;-69
2022/04/03 07:06:20;;;;;;;6.65;3.60;;;2.70;99.90;;;;;;5041905;28;20599;-70
2022/04/03 07:08:48;;;;;;;6.68;3.70;;;2.90;99.90;;;;;;5060115;28;20044;-69
2022/04/03 07:11:14;;;;;;;9.20;3.28;;;2.90;99.90;;;;;;5036223;28;20431;-69
2022/04/03 07:13:40;;;;;;;8.25;4.28;;;2.90;99.90;;;;;;5039321;28;20048;-70
2022/04/03 07:16:06;;;;;;;9.32;3.90;;;2.90;99.90;;;;;;5055248;28;20037;-69
2022/04/03 07:18:31;;;;;;;12.75;3.42;;;3.00;99.90;;;;;;5062109;28;20143;-67
2022/04/03 07:20:57;;;;;;;4.13;2.85;;;3.20;99.90;;;;;;5047103;28;20029;-66
2022/04/03 07:23:25;;;;;;;7.90;3.45;;;3.30;99.90;;;;;;5047320;28;20040;-66
2022/04/03 07:25:50;;;;;;;8.52;2.70;;;3.60;99.90;;;;;;5066027;28;20105;-67
2022/04/03 07:28:16;;;;;;;5.35;2.80;;;3.80;99.90;;;;;;5066990;28;20053;-65
2022/04/03 07:30:42;;;;;;;5.00;2.50;;;4.00;99.90;;;;;;5049701;28;20397;-67
2022/04/03 07:33:07;;;;;;;6.28;2.00;;;4.10;99.90;;;;;;5018606;28;20080;-65
2022/04/03 07:35:33;;;;;;;7.57;1.80;;;4.20;99.90;;;;;;5067611;28;20073;-65
2022/04/03 07:37:58;;;;;;;7.78;2.22;;;4.30;99.90;;;;;;5035447;28;20508;-65
2022/04/03 07:40:24;;;;;;;3.25;1.73;;;4.50;99.90;;;;;;5051914;28;20045;-63
2022/04/03 07:42:51;;;;;;;4.60;1.85;;;4.70;99.90;;;;;;5053313;28;20064;-69
2022/04/03 07:45:17;;;;;;;4.20;1.98;;;4.90;99.90;;;;;;5057418;28;20041;-65
2022/04/03 07:47:49;;;;;;;8.25;1.80;;;4.80;99.90;;;;;;5053364;28;20052;-66
2022/04/03 07:50:18;;;;;;;4.40;1.67;;;4.80;99.90;;;;;;5048652;28;20060;-66
2022/04/03 07:52:45;;;;;;;3.85;1.52;;;4.90;99.90;;;;;;5050967;28;20083;-69
2022/04/03 07:55:10;;;;;;;3.65;1.65;;;5.00;99.90;;;;;;5052312;28;20074;-72
2022/04/03 07:57:38;;;;;;;5.88;2.00;;;4.90;99.90;;;;;;5044764;28;20450;-67
2022/04/03 08:00:06;;;;;;;4.00;1.60;;;4.90;99.90;;;;;;5034262;28;20091;-69
2022/04/03 08:02:35;;;;;;;4.65;1.70;;;5.00;99.90;;;;;;5036320;28;20070;-67
2022/04/03 08:05:01;;;;;;;2.28;0.77;;;5.20;99.90;;;;;;5068149;28;20063;-72
2022/04/03 08:07:37;;;;;;;4.00;1.50;;;5.40;99.90;;;;;;5046875;28;20041;-67
2022/04/03 08:10:05;;;;;;;3.78;1.58;;;5.50;99.90;;;;;;5055970;28;20484;-68
2022/04/03 08:12:32;;;;;;;1.73;0.88;;;5.50;99.90;;;;;;5062920;28;20037;-67
2022/04/03 08:14:59;;;;;;;5.10;1.38;;;5.60;99.90;;;;;;5052907;28;20381;-69
2022/04/03 08:17:25;;;;;;;3.00;1.20;;;5.80;99.90;;;;;;5051993;28;20041;-65
2022/04/03 08:19:51;;;;;;;3.53;1.10;;;5.90;99.90;;;;;;5065542;28;20076;-69
2022/04/03 08:22:16;;;;;;;4.70;1.80;;;5.90;99.90;;;;;;5046486;28;20428;-66
2022/04/03 08:24:43;;;;;;;4.30;1.40;;;6.00;99.90;;;;;;5036067;28;20068;-69
2022/04/03 08:27:10;;;;;;;6.32;1.65;;;6.00;99.90;;;;;;5052022;28;20124;-69
2022/04/03 08:29:36;;;;;;;2.45;1.42;;;6.00;99.90;;;;;;5049819;28;20094;-65
2022/04/03 08:32:01;;;;;;;4.32;1.27;;;6.00;99.90;;;;;;5059364;28;20400;-65
2022/04/03 08:34:27;;;;;;;5.10;1.70;;;6.10;99.90;;;;;;5032682;28;20040;-70
2022/04/03 08:36:52;;;;;;;10.05;1.92;;;6.20;99.90;;;;;;5051163;28;20025;-67
2022/04/03 08:39:18;;;;;;;2.92;1.25;;;6.30;99.90;;;;;;5067269;28;20037;-65
2022/04/03 08:41:43;;;;;;;3.67;1.55;;;6.50;99.90;;;;;;5055512;28;20430;-64
2022/04/03 08:44:10;;;;;;;5.28;1.33;;;6.60;99.90;;;;;;5066313;28;20182;-65
2022/04/03 08:46:40;;;;;;;8.35;1.42;;;6.70;99.90;;;;;;5049433;28;20049;-64
2022/04/03 08:49:07;;;;;;;3.47;1.33;;;6.80;99.90;;;;;;5050608;28;20385;-62
2022/04/03 08:51:36;;;;;;;4.38;1.50;;;7.00;99.90;;;;;;5051605;28;20045;-72
2022/04/03 08:54:04;;;;;;;6.80;2.10;;;7.10;99.90;;;;;;5050822;28;20547;-72
2022/04/03 08:56:30;;;;;;;3.58;1.40;;;7.20;99.90;;;;;;5052163;28;20140;-69
2022/04/03 08:58:57;;;;;;;4.15;1.50;;;7.30;99.90;;;;;;5051540;28;20483;-66
2022/04/03 09:01:24;;;;;;;6.20;1.67;;;7.20;99.90;;;;;;5042318;28;20124;-65
2022/04/03 09:03:49;;;;;;;4.05;1.70;;;7.10;99.90;;;;;;5049865;28;20551;-66
2022/04/03 09:06:19;;;;;;;7.35;1.30;;;7.00;99.90;;;;;;5039757;28;20128;-70
2022/04/03 09:08:45;;;;;;;3.80;1.10;;;7.00;99.90;;;;;;5048673;28;20048;-67
2022/04/03 09:11:12;;;;;;;3.92;1.55;;;7.10;99.90;;;;;;5051057;28;20052;-68
2022/04/03 09:13:38;;;;;;;2.88;1.42;;;7.00;99.90;;;;;;5051443;28;20037;-70
2022/04/03 09:16:05;;;;;;;7.25;1.50;;;6.80;99.90;;;;;;5050267;28;20508;-68
2022/04/03 09:18:46;;;;;;;5.05;1.60;;;6.70;99.90;;;;;;5049784;28;20401;-66
2022/04/03 09:21:25;;;;;;;5.22;1.65;;;6.70;99.90;;;;;;5059253;28;20037;-65
2022/04/03 09:23:57;;;;;;;3.58;1.10;;;6.80;99.90;;;;;;5047059;28;20522;-64
2022/04/03 09:26:24;;;;;;;5.57;1.52;;;7.00;99.90;;;;;;5050318;28;20104;-69
2022/04/03 09:28:49;;;;;;;4.85;1.75;;;7.30;99.90;;;;;;5057172;28;20133;-67
2022/04/03 09:31:59;;;;;;;8.80;1.52;;;7.60;99.90;;;;;;5050046;28;20037;-66
2022/04/03 09:34:26;;;;;;;4.30;1.48;;;7.70;99.90;;;;;;5050353;28;20045;-65
2022/04/03 09:36:58;;;;;;;3.20;1.20;;;7.60;99.90;;;;;;5051147;28;20051;-66
2022/04/03 09:39:28;;;;;;;3.78;1.45;;;7.30;99.90;;;;;;5060710;28;20167;-69
2022/04/03 09:42:00;;;;;;;2.00;1.05;;;7.00;99.90;;;;;;5058714;28;20041;-68
2022/04/03 09:44:34;;;;;;;2.53;1.20;;;6.70;99.90;;;;;;5064090;28;20041;-70
2022/04/03 09:47:20;;;;;;;3.65;1.60;;;6.40;99.90;;;;;;5050427;28;20041;-64
2022/04/03 09:49:51;;;;;;;5.35;1.58;;;6.20;99.90;;;;;;5032569;28;20601;-64
2022/04/03 09:52:35;;;;;;;4.15;1.55;;;6.10;99.90;;;;;;5048292;28;20063;-67
2022/04/03 09:55:05;;;;;;;2.00;0.82;;;6.30;99.90;;;;;;5058585;28;20048;-67
2022/04/03 09:57:32;;;;;;;1.85;0.95;;;6.70;99.90;;;;;;5066657;28;20033;-64
2022/04/03 09:59:58;;;;;;;3.90;1.15;;;7.10;99.90;;;;;;5057529;28;20146;-65
2022/04/03 10:02:25;;;;;;;3.13;0.52;;;7.40;99.90;;;;;;5063582;28;20064;-66
2022/04/03 10:04:55;;;;;;;1.70;0.95;;;7.60;99.90;;;;;;5051265;28;20084;-65
2022/04/03 10:07:22;;;;;;;4.43;1.13;;;7.80;99.90;;;;;;5048446;28;20041;-66
2022/04/03 10:09:50;;;;;;;3.25;1.48;;;7.90;99.90;;;;;;5046585;28;20387;-68
2022/04/03 10:12:21;;;;;;;2.17;1.02;;;8.00;99.90;;;;;;5047740;28;20036;-72
2022/04/03 10:14:50;;;;;;;1.75;0.70;;;8.10;99.90;;;;;;5066413;28;20053;-71
2022/04/03 10:17:16;;;;;;;1.75;0.65;;;8.30;99.90;;;;;;5050317;28;20111;-66
2022/04/03 10:19:42;;;;;;;3.25;1.00;;;8.40;99.90;;;;;;5066737;28;20091;-66
2022/04/03 10:22:25;;;;;;;1.88;1.00;;;8.40;99.90;;;;;;5050664;28;20496;-67
2022/04/03 10:24:55;;;;;;;3.92;1.02;;;8.40;99.90;;;;;;5046404;28;20044;-66
2022/04/03 10:27:28;;;;;;;2.58;1.30;;;8.40;99.90;;;;;;5060565;28;20231;-65
2022/04/03 10:29:58;;;;;;;1.63;0.80;;;8.40;99.90;;;;;;5053941;28;20040;-71
2022/04/03 10:32:33;;;;;;;2.33;0.98;;;8.50;99.90;;;;;;5057585;28;20111;-70
2022/04/03 10:35:06;;;;;;;1.40;0.90;;;8.30;99.90;;;;;;5029039;28;20042;-72
2022/04/03 10:37:34;;;;;;;1.33;0.93;;;8.20;99.90;;;;;;5055560;28;20759;-66
2022/04/03 10:40:17;;;;;;;3.55;1.13;;;8.10;99.90;;;;;;5063301;28;20383;-67
2022/04/03 10:42:58;;;;;;;3.28;1.00;;;8.00;99.90;;;;;;5053783;28;20480;-69
2022/04/03 10:45:28;;;;;;;2.55;1.40;;;8.20;99.90;;;;;;5048267;28;20100;-71
2022/04/03 10:48:19;;;;;;;2.05;1.00;;;8.40;99.90;;;;;;5047563;28;20532;-71
2022/04/03 10:51:05;;;;;;;2.85;1.08;;;8.70;99.90;;;;;;5047271;28;20090;-64
2022/04/03 10:53:33;;;;;;;5.13;1.00;;;8.90;99.90;;;;;;5059696;28;20142;-65
2022/04/03 10:56:07;;;;;;;2.70;0.90;;;8.80;99.20;;;;;;5064644;28;20056;-70
2022/04/03 10:58:45;;;;;;;2.35;0.88;;;8.70;99.90;;;;;;5041150;28;20068;-70
2022/04/03 11:01:22;;;;;;;3.85;1.20;;;9.00;99.90;;;;;;5048534;28;20118;-71
2022/04/03 11:04:02;;;;;;;2.17;1.10;;;9.20;99.90;;;;;;5065170;28;20052;-71
2022/04/03 11:06:30;;;;;;;1.13;0.85;;;9.20;99.90;;;;;;5061562;28;20038;-71
2022/04/03 11:09:06;;;;;;;3.22;1.35;;;9.10;99.90;;;;;;5029006;28;20037;-70
2022/04/03 11:11:50;;;;;;;2.75;1.23;;;8.80;99.90;;;;;;5052854;28;20091;-70
2022/04/03 11:14:57;;;;;;;3.25;0.80;;;8.70;99.90;;;;;;5051346;28;20049;-72
2022/04/03 11:17:52;;;;;;;2.08;1.15;;;8.80;99.90;;;;;;5048578;28;20396;-68
2022/04/03 11:20:39;;;;;;;4.10;1.10;;;8.80;99.90;;;;;;5070139;28;20058;-66
2022/04/03 11:23:07;;;;;;;4.05;0.90;;;8.70;99.90;;;;;;5051711;28;20126;-67
2022/04/03 11:25:33;;;;;;;2.65;0.68;;;8.60;98.90;;;;;;5068689;28;20115;-66
2022/04/03 11:27:58;;;;;;;3.42;0.95;;;8.50;95.50;;;;;;5057761;28;20058;-66
2022/04/03 11:30:24;;;;;;;2.67;0.90;;;8.50;98.30;;;;;;5049941;28;20372;-69
2022/04/03 11:32:51;;;;;;;1.33;0.93;;;8.40;99.50;;;;;;5034882;28;20037;-68
2022/04/03 11:35:30;;;;;;;6.32;1.00;;;8.30;99.90;;;;;;5067971;28;20041;-72
2022/04/03 11:37:57;;;;;;;2.47;1.00;;;8.10;99.90;;;;;;5052821;28;20041;-70
2022/04/03 11:40:23;;;;;;;4.07;0.90;;;8.00;99.90;;;;;;5068994;28;20048;-71
2022/04/03 11:43:04;;;;;;;2.95;0.88;;;8.00;99.90;;;;;;5060154;28;20488;-68
2022/04/03 11:45:30;;;;;;;0.65;0.47;;;8.10;99.90;;;;;;5050167;28;20044;-67
2022/04/03 11:48:16;;;;;;;1.45;0.60;;;8.50;91.60;;;;;;5051578;28;20048;-69
2022/04/03 11:50:41;;;;;;;1.70;0.80;;;8.50;92.70;;;;;;5050865;28;20553;-69
2022/04/03 11:53:11;;;;;;;1.73;1.15;;;8.50;98.90;;;;;;5051236;28;20040;-69
2022/04/03 11:55:37;;;;;;;6.63;1.25;;;8.30;99.10;;;;;;5059736;28;20040;-67
2022/04/03 11:58:04;;;;;;;3.17;1.25;;;8.20;99.00;;;;;;5041949;28;20395;-67
2022/04/03 12:00:31;;;;;;;3.33;0.90;;;8.00;98.70;;;;;;5030299;28;20120;-69
2022/04/03 12:03:03;;;;;;;1.63;0.90;;;7.90;99.90;;;;;;5050024;28;20041;-67
2022/04/03 12:05:29;;;;;;;3.70;1.02;;;7.90;99.90;;;;;;5052336;28;20045;-67
2022/04/03 12:07:54;;;;;;;2.55;0.77;;;7.90;99.90;;;;;;5061502;28;20045;-71
2022/04/03 12:10:24;;;;;;;2.22;0.95;;;7.90;99.90;;;;;;5049088;28;20040;-67
2022/04/03 12:12:50;;;;;;;6.60;1.20;;;7.90;99.90;;;;;;5066896;28;20040;-70
2022/04/03 12:15:19;;;;;;;2.45;1.27;;;7.80;99.90;;;;;;5049789;28;20049;-68
2022/04/03 12:17:45;;;;;;;4.00;0.80;;;7.80;99.90;;;;;;5051634;28;20033;-68
2022/04/03 12:20:12;;;;;;;3.90;1.10;;;7.80;99.90;;;;;;5048653;28;20037;-71
2022/04/03 12:22:42;;;;;;;2.20;1.10;;;7.90;99.90;;;;;;5069516;28;20047;-68
2022/04/03 12:25:08;;;;;;;2.83;1.08;;;7.90;99.90;;;;;;5057609;28;20089;-67
2022/04/03 12:27:34;;;;;;;2.20;0.90;;;7.80;99.90;;;;;;5036020;28;20037;-67
2022/04/03 12:30:00;;;;;;;4.60;0.68;;;7.80;99.90;;;;;;5046005;28;20045;-66
2022/04/03 12:32:25;;;;;;;4.82;0.80;;;7.80;99.90;;;;;;5049647;28;20083;-69
2022/04/03 12:34:51;;;;;;;1.25;0.70;;;7.70;99.90;;;;;;5058185;28;20104;-70
2022/04/03 12:37:18;;;;;;;1.95;1.20;;;7.60;99.90;;;;;;5032096;28;20427;-65
2022/04/03 12:40:05;;;;;;;1.25;0.68;;;7.50;99.90;;;;;;5039160;28;20036;-65
2022/04/03 12:42:32;;;;;;;4.05;1.77;;;7.00;99.90;;;;;;5048304;28;20636;-66
2022/04/03 12:45:21;;;;;;;4.00;1.75;;;6.50;99.90;;;;;;5050542;28;20097;-67
2022/04/03 12:47:47;;;;;;;5.30;1.80;;;6.20;99.90;;;;;;5049817;28;20045;-68
2022/04/03 12:50:21;;;;;;;9.27;2.45;;;6.10;99.90;;;;;;5049800;28;20037;-67
2022/04/03 12:52:50;;;;;;;5.85;2.67;;;6.20;99.90;;;;;;5052012;28;20171;-67
2022/04/03 12:55:25;;;;;;;6.22;3.47;;;6.30;99.90;;;;;;5035785;28;20047;-67
2022/04/03 13:00:53;;;;;;;4.55;1.75;;;6.50;99.90;;;;;;5054243;28;20098;-67